sensor_id;sensor_type;location;lat;lon;timestamp;P1;durP1;ratioP1;P2;durP2;ratioP2
55641;SDS011;41509;53.108;6.100;2022-08-11T00:01:45;4.63;;;2.72;;
55641;SDS011;41509;53.108;6.100;2022-08-11T00:04:15;7.80;;;3.08;;
55641;SDS011;41509;53.108;6.100;2022-08-11T00:06:42;4.30;;;2.40;;
55641;SDS011;41509;53.108;6.100;2022-08-11T00:09:14;5.65;;;2.95;;
55641;SDS011;41509;53.108;6.100;2022-08-11T00:14:14;4.53;;;2.83;;
55641;SDS011;41509;53.108;6.100;2022-08-11T00:16:43;6.07;;;3.05;;
55641;SDS011;41509;53.108;6.100;2022-08-11T00:19:21;4.57;;;2.65;;
55641;SDS011;41509;53.108;6.100;2022-08-11T00:21:49;5.38;;;2.50;;
55641;SDS011;41509;53.108;6.100;2022-08-11T00:24:15;4.55;;;2.72;;
55641;SDS011;41509;53.108;6.100;2022-08-11T00:26:46;5.57;;;3.05;;
55641;SDS011;41509;53.108;6.100;2022-08-11T00:29:13;3.85;;;2.50;;
55641;SDS011;41509;53.108;6.100;2022-08-11T00:31:42;5.95;;;2.42;;
55641;SDS011;41509;53.108;6.100;2022-08-11T00:34:10;4.90;;;2.75;;
55641;SDS011;41509;53.108;6.100;2022-08-11T00:39:11;6.47;;;2.92;;
55641;SDS011;41509;53.108;6.100;2022-08-11T00:41:57;3.80;;;2.53;;
55641;SDS011;41509;53.108;6.100;2022-08-11T00:44:40;5.35;;;3.10;;
55641;SDS011;41509;53.108;6.100;2022-08-11T01:06:50;6.35;;;3.35;;
55641;SDS011;41509;53.108;6.100;2022-08-11T01:12:39;5.70;;;2.88;;
55641;SDS011;41509;53.108;6.100;2022-08-11T01:15:32;5.15;;;3.05;;
55641;SDS011;41509;53.108;6.100;2022-08-11T01:29:55;7.95;;;3.92;;
55641;SDS011;41509;53.108;6.100;2022-08-11T01:46:22;5.90;;;3.65;;
55641;SDS011;41509;53.108;6.100;2022-08-11T01:49:09;5.13;;;3.47;;
55641;SDS011;41509;53.108;6.100;2022-08-11T01:52:07;7.95;;;3.85;;
55641;SDS011;41509;53.108;6.100;2022-08-11T02:00:34;6.82;;;3.90;;
55641;SDS011;41509;53.108;6.100;2022-08-11T02:03:17;7.03;;;3.88;;
55641;SDS011;41509;53.108;6.100;2022-08-11T02:12:14;6.38;;;3.70;;
55641;SDS011;41509;53.108;6.100;2022-08-11T02:14:48;5.28;;;3.45;;
55641;SDS011;41509;53.108;6.100;2022-08-11T02:17:46;6.53;;;4.20;;
55641;SDS011;41509;53.108;6.100;2022-08-11T02:24:03;6.47;;;3.88;;
55641;SDS011;41509;53.108;6.100;2022-08-11T02:43:07;6.68;;;4.22;;
55641;SDS011;41509;53.108;6.100;2022-08-11T02:46:03;7.72;;;4.60;;
55641;SDS011;41509;53.108;6.100;2022-08-11T02:55:02;6.20;;;3.63;;
55641;SDS011;41509;53.108;6.100;2022-08-11T02:57:50;6.38;;;4.20;;
55641;SDS011;41509;53.108;6.100;2022-08-11T03:00:24;12.13;;;5.07;;
55641;SDS011;41509;53.108;6.100;2022-08-11T03:11:21;5.00;;;3.67;;
55641;SDS011;41509;53.108;6.100;2022-08-11T03:14:26;8.70;;;4.53;;
55641;SDS011;41509;53.108;6.100;2022-08-11T03:17:28;6.07;;;3.90;;
55641;SDS011;41509;53.108;6.100;2022-08-11T03:20:29;6.55;;;4.60;;
55641;SDS011;41509;53.108;6.100;2022-08-11T03:23:19;6.30;;;3.90;;
55641;SDS011;41509;53.108;6.100;2022-08-11T03:25:57;7.40;;;4.13;;
55641;SDS011;41509;53.108;6.100;2022-08-11T03:28:29;6.78;;;4.18;;
55641;SDS011;41509;53.108;6.100;2022-08-11T03:31:19;9.20;;;4.72;;
55641;SDS011;41509;53.108;6.100;2022-08-11T03:39:17;8.10;;;3.97;;
55641;SDS011;41509;53.108;6.100;2022-08-11T03:42:45;6.85;;;4.32;;
55641;SDS011;41509;53.108;6.100;2022-08-11T03:53:19;7.25;;;4.30;;
55641;SDS011;41509;53.108;6.100;2022-08-11T03:56:12;7.32;;;4.70;;
55641;SDS011;41509;53.108;6.100;2022-08-11T03:59:11;7.80;;;4.47;;
55641;SDS011;41509;53.108;6.100;2022-08-11T04:02:18;9.38;;;5.20;;
55641;SDS011;41509;53.108;6.100;2022-08-11T04:10:55;7.53;;;4.75;;
55641;SDS011;41509;53.108;6.100;2022-08-11T04:17:16;12.70;;;4.82;;
55641;SDS011;41509;53.108;6.100;2022-08-11T04:19:46;7.77;;;4.83;;
55641;SDS011;41509;53.108;6.100;2022-08-11T04:25:06;7.20;;;4.63;;
55641;SDS011;41509;53.108;6.100;2022-08-11T04:30:32;7.23;;;4.80;;
55641;SDS011;41509;53.108;6.100;2022-08-11T04:42:20;9.32;;;4.88;;
55641;SDS011;41509;53.108;6.100;2022-08-11T04:46:14;8.52;;;4.82;;
55641;SDS011;41509;53.108;6.100;2022-08-11T04:51:42;6.55;;;4.60;;
55641;SDS011;41509;53.108;6.100;2022-08-11T05:03:47;8.70;;;4.78;;
55641;SDS011;41509;53.108;6.100;2022-08-11T05:07:07;11.00;;;4.97;;
55641;SDS011;41509;53.108;6.100;2022-08-11T05:09:45;7.07;;;4.50;;
55641;SDS011;41509;53.108;6.100;2022-08-11T05:12:34;8.20;;;5.10;;
55641;SDS011;41509;53.108;6.100;2022-08-11T05:15:17;9.00;;;4.82;;
55641;SDS011;41509;53.108;6.100;2022-08-11T05:18:16;9.32;;;5.07;;
55641;SDS011;41509;53.108;6.100;2022-08-11T05:21:06;7.28;;;4.55;;
55641;SDS011;41509;53.108;6.100;2022-08-11T05:23:55;8.25;;;5.15;;
55641;SDS011;41509;53.108;6.100;2022-08-11T05:26:47;10.00;;;6.00;;
55641;SDS011;41509;53.108;6.100;2022-08-11T05:32:20;7.82;;;5.32;;
55641;SDS011;41509;53.108;6.100;2022-08-11T05:35:06;8.85;;;5.55;;
55641;SDS011;41509;53.108;6.100;2022-08-11T05:40:37;11.40;;;4.97;;
55641;SDS011;41509;53.108;6.100;2022-08-11T05:43:28;10.65;;;5.80;;
55641;SDS011;41509;53.108;6.100;2022-08-11T05:46:12;8.13;;;5.05;;
55641;SDS011;41509;53.108;6.100;2022-08-11T05:48:57;10.70;;;6.03;;
55641;SDS011;41509;53.108;6.100;2022-08-11T05:51:42;9.70;;;5.47;;
55641;SDS011;41509;53.108;6.100;2022-08-11T05:54:27;9.13;;;5.70;;
55641;SDS011;41509;53.108;6.100;2022-08-11T05:57:19;9.73;;;5.47;;
55641;SDS011;41509;53.108;6.100;2022-08-11T05:59:47;8.15;;;5.15;;
55641;SDS011;41509;53.108;6.100;2022-08-11T06:02:14;10.10;;;5.63;;
55641;SDS011;41509;53.108;6.100;2022-08-11T06:04:41;7.50;;;4.85;;
55641;SDS011;41509;53.108;6.100;2022-08-11T06:07:08;9.30;;;4.60;;
55641;SDS011;41509;53.108;6.100;2022-08-11T06:09:48;9.23;;;4.82;;
55641;SDS011;41509;53.108;6.100;2022-08-11T06:12:16;8.80;;;4.88;;
55641;SDS011;41509;53.108;6.100;2022-08-11T06:14:54;9.48;;;5.03;;
55641;SDS011;41509;53.108;6.100;2022-08-11T06:17:24;8.38;;;4.45;;
55641;SDS011;41509;53.108;6.100;2022-08-11T06:19:58;7.80;;;4.78;;
55641;SDS011;41509;53.108;6.100;2022-08-11T06:22:26;8.38;;;4.80;;
55641;SDS011;41509;53.108;6.100;2022-08-11T06:24:56;7.85;;;4.50;;
55641;SDS011;41509;53.108;6.100;2022-08-11T06:27:24;7.30;;;4.65;;
55641;SDS011;41509;53.108;6.100;2022-08-11T06:29:52;6.57;;;3.95;;
55641;SDS011;41509;53.108;6.100;2022-08-11T06:32:26;7.50;;;4.53;;
55641;SDS011;41509;53.108;6.100;2022-08-11T06:35:18;7.85;;;4.20;;
55641;SDS011;41509;53.108;6.100;2022-08-11T06:38:01;7.53;;;4.70;;
55641;SDS011;41509;53.108;6.100;2022-08-11T06:40:35;7.45;;;4.40;;
55641;SDS011;41509;53.108;6.100;2022-08-11T06:43:09;7.07;;;4.57;;
55641;SDS011;41509;53.108;6.100;2022-08-11T06:45:50;7.05;;;4.28;;
55641;SDS011;41509;53.108;6.100;2022-08-11T06:48:37;9.43;;;4.13;;
55641;SDS011;41509;53.108;6.100;2022-08-11T06:53:38;8.02;;;4.60;;
55641;SDS011;41509;53.108;6.100;2022-08-11T06:56:05;10.35;;;4.88;;
55641;SDS011;41509;53.108;6.100;2022-08-11T06:58:51;7.68;;;4.03;;
55641;SDS011;41509;53.108;6.100;2022-08-11T07:04:43;6.25;;;4.10;;
55641;SDS011;41509;53.108;6.100;2022-08-11T07:13:16;8.63;;;4.22;;
55641;SDS011;41509;53.108;6.100;2022-08-11T07:16:04;7.40;;;3.88;;
55641;SDS011;41509;53.108;6.100;2022-08-11T07:18:32;6.05;;;4.13;;
55641;SDS011;41509;53.108;6.100;2022-08-11T07:21:29;6.72;;;3.70;;
55641;SDS011;41509;53.108;6.100;2022-08-11T07:24:19;8.48;;;3.92;;
55641;SDS011;41509;53.108;6.100;2022-08-11T07:27:08;7.18;;;4.00;;
55641;SDS011;41509;53.108;6.100;2022-08-11T07:30:02;8.10;;;3.60;;
55641;SDS011;41509;53.108;6.100;2022-08-11T07:32:30;5.90;;;3.38;;
55641;SDS011;41509;53.108;6.100;2022-08-11T07:34:58;4.97;;;2.45;;
55641;SDS011;41509;53.108;6.100;2022-08-11T07:37:32;4.72;;;2.60;;
55641;SDS011;41509;53.108;6.100;2022-08-11T07:39:59;5.55;;;2.97;;
55641;SDS011;41509;53.108;6.100;2022-08-11T07:42:27;5.07;;;3.00;;
55641;SDS011;41509;53.108;6.100;2022-08-11T07:44:59;4.97;;;3.13;;
55641;SDS011;41509;53.108;6.100;2022-08-11T07:47:47;5.97;;;2.78;;
55641;SDS011;41509;53.108;6.100;2022-08-11T07:50:32;4.38;;;2.15;;
55641;SDS011;41509;53.108;6.100;2022-08-11T07:53:18;4.28;;;2.58;;
55641;SDS011;41509;53.108;6.100;2022-08-11T07:55:47;4.72;;;2.45;;
55641;SDS011;41509;53.108;6.100;2022-08-11T07:58:14;4.43;;;2.65;;
55641;SDS011;41509;53.108;6.100;2022-08-11T08:00:59;4.97;;;2.00;;
55641;SDS011;41509;53.108;6.100;2022-08-11T08:03:44;5.05;;;1.98;;
55641;SDS011;41509;53.108;6.100;2022-08-11T08:06:28;5.25;;;2.45;;
55641;SDS011;41509;53.108;6.100;2022-08-11T08:12:01;4.50;;;1.95;;
55641;SDS011;41509;53.108;6.100;2022-08-11T08:14:46;3.67;;;2.20;;
55641;SDS011;41509;53.108;6.100;2022-08-11T08:17:31;2.90;;;2.20;;
55641;SDS011;41509;53.108;6.100;2022-08-11T08:20:22;3.35;;;1.58;;
55641;SDS011;41509;53.108;6.100;2022-08-11T08:22:51;3.85;;;1.70;;
55641;SDS011;41509;53.108;6.100;2022-08-11T08:25:27;2.60;;;1.70;;
55641;SDS011;41509;53.108;6.100;2022-08-11T08:27:55;3.60;;;1.35;;
55641;SDS011;41509;53.108;6.100;2022-08-11T08:30:23;3.13;;;1.55;;
55641;SDS011;41509;53.108;6.100;2022-08-11T08:33:11;4.22;;;1.58;;
55641;SDS011;41509;53.108;6.100;2022-08-11T08:35:44;2.03;;;1.40;;
55641;SDS011;41509;53.108;6.100;2022-08-11T08:38:11;2.72;;;1.40;;
55641;SDS011;41509;53.108;6.100;2022-08-11T08:40:39;2.55;;;1.30;;
55641;SDS011;41509;53.108;6.100;2022-08-11T08:43:08;1.88;;;1.23;;
55641;SDS011;41509;53.108;6.100;2022-08-11T08:45:39;3.03;;;1.52;;
55641;SDS011;41509;53.108;6.100;2022-08-11T08:48:11;2.97;;;1.27;;
55641;SDS011;41509;53.108;6.100;2022-08-11T08:50:46;3.25;;;1.17;;
55641;SDS011;41509;53.108;6.100;2022-08-11T08:53:35;2.25;;;0.90;;
55641;SDS011;41509;53.108;6.100;2022-08-11T08:56:05;1.70;;;1.10;;
55641;SDS011;41509;53.108;6.100;2022-08-11T08:58:33;4.53;;;1.40;;
55641;SDS011;41509;53.108;6.100;2022-08-11T09:01:01;2.88;;;1.20;;
55641;SDS011;41509;53.108;6.100;2022-08-11T09:03:27;2.00;;;1.17;;
55641;SDS011;41509;53.108;6.100;2022-08-11T09:05:54;2.38;;;1.20;;
55641;SDS011;41509;53.108;6.100;2022-08-11T09:08:20;2.30;;;1.30;;
55641;SDS011;41509;53.108;6.100;2022-08-11T09:10:47;2.83;;;1.27;;
55641;SDS011;41509;53.108;6.100;2022-08-11T09:13:34;2.85;;;1.65;;
55641;SDS011;41509;53.108;6.100;2022-08-11T09:16:03;2.28;;;1.10;;
55641;SDS011;41509;53.108;6.100;2022-08-11T09:18:30;2.00;;;0.90;;
55641;SDS011;41509;53.108;6.100;2022-08-11T09:20:57;1.45;;;0.95;;
55641;SDS011;41509;53.108;6.100;2022-08-11T09:23:23;1.88;;;1.10;;
55641;SDS011;41509;53.108;6.100;2022-08-11T09:26:09;5.20;;;1.20;;
55641;SDS011;41509;53.108;6.100;2022-08-11T09:28:54;4.10;;;1.35;;
55641;SDS011;41509;53.108;6.100;2022-08-11T09:31:21;2.97;;;1.42;;
55641;SDS011;41509;53.108;6.100;2022-08-11T09:36:15;1.60;;;1.02;;
55641;SDS011;41509;53.108;6.100;2022-08-11T09:39:02;2.45;;;1.10;;
55641;SDS011;41509;53.108;6.100;2022-08-11T09:41:48;1.83;;;1.50;;
55641;SDS011;41509;53.108;6.100;2022-08-11T09:44:14;3.00;;;1.23;;
55641;SDS011;41509;53.108;6.100;2022-08-11T09:46:59;1.65;;;1.00;;
55641;SDS011;41509;53.108;6.100;2022-08-11T09:49:25;4.03;;;1.13;;
55641;SDS011;41509;53.108;6.100;2022-08-11T09:51:51;2.30;;;1.17;;
55641;SDS011;41509;53.108;6.100;2022-08-11T09:54:18;2.72;;;1.10;;
55641;SDS011;41509;53.108;6.100;2022-08-11T09:56:47;1.98;;;0.90;;
55641;SDS011;41509;53.108;6.100;2022-08-11T09:59:31;4.40;;;1.20;;
55641;SDS011;41509;53.108;6.100;2022-08-11T10:01:57;2.15;;;0.93;;
55641;SDS011;41509;53.108;6.100;2022-08-11T10:04:26;2.55;;;1.10;;
55641;SDS011;41509;53.108;6.100;2022-08-11T10:06:59;2.33;;;1.00;;
55641;SDS011;41509;53.108;6.100;2022-08-11T10:09:33;2.22;;;1.05;;
55641;SDS011;41509;53.108;6.100;2022-08-11T10:12:03;1.95;;;0.80;;
55641;SDS011;41509;53.108;6.100;2022-08-11T10:14:33;2.35;;;1.23;;
55641;SDS011;41509;53.108;6.100;2022-08-11T10:17:23;2.13;;;1.00;;
55641;SDS011;41509;53.108;6.100;2022-08-11T10:19:49;2.97;;;0.95;;
55641;SDS011;41509;53.108;6.100;2022-08-11T10:22:15;2.45;;;1.02;;
55641;SDS011;41509;53.108;6.100;2022-08-11T10:25:20;1.60;;;0.70;;
55641;SDS011;41509;53.108;6.100;2022-08-11T10:28:06;1.52;;;0.85;;
55641;SDS011;41509;53.108;6.100;2022-08-11T10:30:33;2.08;;;0.98;;
55641;SDS011;41509;53.108;6.100;2022-08-11T10:33:18;3.53;;;1.00;;
55641;SDS011;41509;53.108;6.100;2022-08-11T10:36:03;2.08;;;1.00;;
55641;SDS011;41509;53.108;6.100;2022-08-11T10:38:31;1.92;;;0.85;;
55641;SDS011;41509;53.108;6.100;2022-08-11T10:40:58;1.30;;;0.90;;
55641;SDS011;41509;53.108;6.100;2022-08-11T10:43:44;1.65;;;1.00;;
55641;SDS011;41509;53.108;6.100;2022-08-11T10:46:10;2.00;;;1.15;;
55641;SDS011;41509;53.108;6.100;2022-08-11T10:48:56;2.28;;;1.10;;
55641;SDS011;41509;53.108;6.100;2022-08-11T10:51:26;1.40;;;1.00;;
55641;SDS011;41509;53.108;6.100;2022-08-11T10:54:12;1.65;;;1.00;;
55641;SDS011;41509;53.108;6.100;2022-08-11T10:56:58;1.38;;;0.82;;
55641;SDS011;41509;53.108;6.100;2022-08-11T10:59:43;3.33;;;1.00;;
55641;SDS011;41509;53.108;6.100;2022-08-11T11:02:12;1.52;;;1.08;;
55641;SDS011;41509;53.108;6.100;2022-08-11T11:07:18;1.70;;;0.95;;
55641;SDS011;41509;53.108;6.100;2022-08-11T11:09:53;1.48;;;0.93;;
55641;SDS011;41509;53.108;6.100;2022-08-11T11:12:30;2.20;;;1.30;;
55641;SDS011;41509;53.108;6.100;2022-08-11T11:15:16;3.72;;;1.40;;
55641;SDS011;41509;53.108;6.100;2022-08-11T11:20:46;4.68;;;1.20;;
55641;SDS011;41509;53.108;6.100;2022-08-11T11:23:23;1.88;;;0.88;;
55641;SDS011;41509;53.108;6.100;2022-08-11T11:26:04;1.30;;;1.00;;
55641;SDS011;41509;53.108;6.100;2022-08-11T11:37:09;2.28;;;1.20;;
55641;SDS011;41509;53.108;6.100;2022-08-11T11:39:40;2.50;;;0.80;;
55641;SDS011;41509;53.108;6.100;2022-08-11T11:42:06;2.13;;;0.90;;
55641;SDS011;41509;53.108;6.100;2022-08-11T11:44:35;6.50;;;1.13;;
55641;SDS011;41509;53.108;6.100;2022-08-11T11:47:02;1.48;;;0.95;;
55641;SDS011;41509;53.108;6.100;2022-08-11T11:49:29;2.95;;;1.15;;
55641;SDS011;41509;53.108;6.100;2022-08-11T11:52:03;1.05;;;0.70;;
55641;SDS011;41509;53.108;6.100;2022-08-11T11:54:32;1.23;;;0.90;;
55641;SDS011;41509;53.108;6.100;2022-08-11T11:57:00;2.47;;;0.93;;
55641;SDS011;41509;53.108;6.100;2022-08-11T11:59:49;3.42;;;1.10;;
55641;SDS011;41509;53.108;6.100;2022-08-11T12:02:35;2.05;;;0.90;;
55641;SDS011;41509;53.108;6.100;2022-08-11T12:05:03;1.20;;;0.60;;
55641;SDS011;41509;53.108;6.100;2022-08-11T12:07:29;1.45;;;0.80;;
55641;SDS011;41509;53.108;6.100;2022-08-11T12:10:15;1.40;;;0.88;;
55641;SDS011;41509;53.108;6.100;2022-08-11T12:12:42;1.60;;;0.82;;
55641;SDS011;41509;53.108;6.100;2022-08-11T12:15:28;2.45;;;1.00;;
55641;SDS011;41509;53.108;6.100;2022-08-11T12:17:55;1.70;;;1.02;;
55641;SDS011;41509;53.108;6.100;2022-08-11T12:20:21;1.55;;;0.68;;
55641;SDS011;41509;53.108;6.100;2022-08-11T12:22:47;2.72;;;0.68;;
55641;SDS011;41509;53.108;6.100;2022-08-11T12:25:33;1.58;;;0.80;;
55641;SDS011;41509;53.108;6.100;2022-08-11T12:28:18;1.17;;;0.80;;
55641;SDS011;41509;53.108;6.100;2022-08-11T12:30:47;3.50;;;0.50;;
55641;SDS011;41509;53.108;6.100;2022-08-11T12:33:15;1.67;;;0.90;;
55641;SDS011;41509;53.108;6.100;2022-08-11T12:35:42;1.67;;;0.70;;
55641;SDS011;41509;53.108;6.100;2022-08-11T12:38:08;1.58;;;0.70;;
55641;SDS011;41509;53.108;6.100;2022-08-11T12:40:34;1.38;;;0.77;;
55641;SDS011;41509;53.108;6.100;2022-08-11T12:43:21;2.92;;;0.93;;
55641;SDS011;41509;53.108;6.100;2022-08-11T12:46:11;2.05;;;0.70;;
55641;SDS011;41509;53.108;6.100;2022-08-11T12:48:46;1.38;;;0.75;;
55641;SDS011;41509;53.108;6.100;2022-08-11T12:51:34;1.83;;;1.00;;
55641;SDS011;41509;53.108;6.100;2022-08-11T13:00:08;2.03;;;1.00;;
55641;SDS011;41509;53.108;6.100;2022-08-11T13:02:53;1.67;;;0.90;;
55641;SDS011;41509;53.108;6.100;2022-08-11T13:05:38;1.75;;;0.88;;
55641;SDS011;41509;53.108;6.100;2022-08-11T13:08:06;0.98;;;0.63;;
55641;SDS011;41509;53.108;6.100;2022-08-11T13:10:32;2.42;;;0.80;;
55641;SDS011;41509;53.108;6.100;2022-08-11T13:13:17;1.30;;;0.60;;
55641;SDS011;41509;53.108;6.100;2022-08-11T13:15:45;1.77;;;0.75;;
55641;SDS011;41509;53.108;6.100;2022-08-11T13:18:17;1.10;;;0.70;;
55641;SDS011;41509;53.108;6.100;2022-08-11T13:20:47;1.52;;;0.80;;
55641;SDS011;41509;53.108;6.100;2022-08-11T13:23:17;1.83;;;0.80;;
55641;SDS011;41509;53.108;6.100;2022-08-11T13:25:43;2.35;;;0.77;;
55641;SDS011;41509;53.108;6.100;2022-08-11T13:28:09;1.73;;;0.70;;
55641;SDS011;41509;53.108;6.100;2022-08-11T13:30:36;1.25;;;0.70;;
55641;SDS011;41509;53.108;6.100;2022-08-11T13:33:21;1.50;;;0.70;;
55641;SDS011;41509;53.108;6.100;2022-08-11T13:35:47;2.22;;;0.80;;
55641;SDS011;41509;53.108;6.100;2022-08-11T13:38:16;1.52;;;0.68;;
55641;SDS011;41509;53.108;6.100;2022-08-11T13:40:44;1.75;;;0.95;;
55641;SDS011;41509;53.108;6.100;2022-08-11T13:43:11;1.15;;;0.60;;
55641;SDS011;41509;53.108;6.100;2022-08-11T13:45:39;2.03;;;0.85;;
55641;SDS011;41509;53.108;6.100;2022-08-11T13:50:43;1.20;;;0.70;;
55641;SDS011;41509;53.108;6.100;2022-08-11T13:53:29;1.38;;;0.60;;
55641;SDS011;41509;53.108;6.100;2022-08-11T13:55:56;1.00;;;0.68;;
55641;SDS011;41509;53.108;6.100;2022-08-11T13:58:24;2.75;;;0.90;;
55641;SDS011;41509;53.108;6.100;2022-08-11T14:00:51;1.05;;;0.65;;
55641;SDS011;41509;53.108;6.100;2022-08-11T14:03:24;1.95;;;0.88;;
55641;SDS011;41509;53.108;6.100;2022-08-11T14:05:52;2.65;;;1.08;;
55641;SDS011;41509;53.108;6.100;2022-08-11T14:08:24;1.85;;;0.95;;
55641;SDS011;41509;53.108;6.100;2022-08-11T14:10:54;1.75;;;0.80;;
55641;SDS011;41509;53.108;6.100;2022-08-11T14:13:44;1.52;;;0.90;;
55641;SDS011;41509;53.108;6.100;2022-08-11T14:16:11;1.40;;;0.73;;
55641;SDS011;41509;53.108;6.100;2022-08-11T14:18:44;1.35;;;0.80;;
55641;SDS011;41509;53.108;6.100;2022-08-11T14:21:13;3.03;;;0.98;;
55641;SDS011;41509;53.108;6.100;2022-08-11T14:24:00;1.70;;;0.75;;
55641;SDS011;41509;53.108;6.100;2022-08-11T14:26:28;1.55;;;1.10;;
55641;SDS011;41509;53.108;6.100;2022-08-11T14:29:03;2.15;;;1.02;;
55641;SDS011;41509;53.108;6.100;2022-08-11T14:31:37;1.38;;;0.85;;
55641;SDS011;41509;53.108;6.100;2022-08-11T14:34:11;1.35;;;0.70;;
55641;SDS011;41509;53.108;6.100;2022-08-11T14:36:42;1.50;;;0.77;;
55641;SDS011;41509;53.108;6.100;2022-08-11T14:39:12;1.33;;;0.75;;
55641;SDS011;41509;53.108;6.100;2022-08-11T14:41:45;1.55;;;0.93;;
55641;SDS011;41509;53.108;6.100;2022-08-11T14:44:33;3.05;;;0.90;;
55641;SDS011;41509;53.108;6.100;2022-08-11T14:47:19;2.35;;;0.77;;
55641;SDS011;41509;53.108;6.100;2022-08-11T14:49:46;2.53;;;0.80;;
55641;SDS011;41509;53.108;6.100;2022-08-11T14:52:16;1.73;;;0.65;;
55641;SDS011;41509;53.108;6.100;2022-08-11T14:54:45;1.15;;;0.75;;
55641;SDS011;41509;53.108;6.100;2022-08-11T14:57:32;1.10;;;0.70;;
55641;SDS011;41509;53.108;6.100;2022-08-11T15:00:03;1.15;;;0.50;;
55641;SDS011;41509;53.108;6.100;2022-08-11T15:02:30;1.65;;;0.63;;
55641;SDS011;41509;53.108;6.100;2022-08-11T15:05:20;1.10;;;0.80;;
55641;SDS011;41509;53.108;6.100;2022-08-11T15:07:47;2.38;;;0.88;;
55641;SDS011;41509;53.108;6.100;2022-08-11T15:10:15;3.55;;;0.90;;
55641;SDS011;41509;53.108;6.100;2022-08-11T15:12:42;1.92;;;0.85;;
55641;SDS011;41509;53.108;6.100;2022-08-11T15:15:09;1.17;;;0.77;;
55641;SDS011;41509;53.108;6.100;2022-08-11T15:17:56;1.17;;;0.70;;
55641;SDS011;41509;53.108;6.100;2022-08-11T15:20:24;2.33;;;0.88;;
55641;SDS011;41509;53.108;6.100;2022-08-11T15:23:10;1.67;;;1.02;;
55641;SDS011;41509;53.108;6.100;2022-08-11T15:26:02;1.15;;;0.70;;
55641;SDS011;41509;53.108;6.100;2022-08-11T15:28:30;2.50;;;0.73;;
55641;SDS011;41509;53.108;6.100;2022-08-11T15:31:19;2.78;;;1.27;;
55641;SDS011;41509;53.108;6.100;2022-08-11T15:34:06;1.75;;;0.80;;
55641;SDS011;41509;53.108;6.100;2022-08-11T15:36:56;2.75;;;0.90;;
55641;SDS011;41509;53.108;6.100;2022-08-11T15:42:32;1.60;;;1.00;;
55641;SDS011;41509;53.108;6.100;2022-08-11T15:45:22;1.10;;;0.70;;
55641;SDS011;41509;53.108;6.100;2022-08-11T15:48:09;2.15;;;1.10;;
55641;SDS011;41509;53.108;6.100;2022-08-11T15:50:39;1.40;;;0.75;;
55641;SDS011;41509;53.108;6.100;2022-08-11T15:53:17;1.60;;;0.70;;
55641;SDS011;41509;53.108;6.100;2022-08-11T15:55:53;1.52;;;0.85;;
55641;SDS011;41509;53.108;6.100;2022-08-11T15:58:20;3.67;;;1.02;;
55641;SDS011;41509;53.108;6.100;2022-08-11T16:01:07;1.67;;;0.93;;
55641;SDS011;41509;53.108;6.100;2022-08-11T16:03:56;2.70;;;0.80;;
55641;SDS011;41509;53.108;6.100;2022-08-11T16:09:12;1.98;;;1.02;;
55641;SDS011;41509;53.108;6.100;2022-08-11T16:11:41;1.40;;;0.80;;
55641;SDS011;41509;53.108;6.100;2022-08-11T16:14:08;1.30;;;0.60;;
55641;SDS011;41509;53.108;6.100;2022-08-11T16:16:54;1.63;;;0.70;;
55641;SDS011;41509;53.108;6.100;2022-08-11T16:19:22;1.63;;;0.77;;
55641;SDS011;41509;53.108;6.100;2022-08-11T16:21:51;1.60;;;0.90;;
55641;SDS011;41509;53.108;6.100;2022-08-11T16:24:19;4.63;;;0.90;;
55641;SDS011;41509;53.108;6.100;2022-08-11T16:26:46;2.63;;;1.00;;
55641;SDS011;41509;53.108;6.100;2022-08-11T16:29:14;3.15;;;0.70;;
55641;SDS011;41509;53.108;6.100;2022-08-11T16:31:42;1.30;;;0.80;;
55641;SDS011;41509;53.108;6.100;2022-08-11T16:34:28;2.67;;;0.73;;
55641;SDS011;41509;53.108;6.100;2022-08-11T16:37:14;1.40;;;0.90;;
55641;SDS011;41509;53.108;6.100;2022-08-11T16:39:59;1.00;;;0.68;;
55641;SDS011;41509;53.108;6.100;2022-08-11T16:42:25;1.10;;;0.60;;
55641;SDS011;41509;53.108;6.100;2022-08-11T16:45:09;2.03;;;0.80;;
55641;SDS011;41509;53.108;6.100;2022-08-11T16:48:01;1.35;;;0.65;;
55641;SDS011;41509;53.108;6.100;2022-08-11T16:50:29;1.92;;;0.90;;
55641;SDS011;41509;53.108;6.100;2022-08-11T16:52:55;1.30;;;0.80;;
55641;SDS011;41509;53.108;6.100;2022-08-11T16:55:20;1.58;;;0.70;;
55641;SDS011;41509;53.108;6.100;2022-08-11T16:57:47;2.10;;;0.85;;
55641;SDS011;41509;53.108;6.100;2022-08-11T17:00:31;5.88;;;1.02;;
55641;SDS011;41509;53.108;6.100;2022-08-11T17:02:58;3.28;;;0.80;;
55641;SDS011;41509;53.108;6.100;2022-08-11T17:05:51;1.45;;;0.88;;
55641;SDS011;41509;53.108;6.100;2022-08-11T17:08:36;1.38;;;0.70;;
55641;SDS011;41509;53.108;6.100;2022-08-11T17:11:36;1.15;;;0.70;;
55641;SDS011;41509;53.108;6.100;2022-08-11T17:14:48;1.23;;;0.70;;
55641;SDS011;41509;53.108;6.100;2022-08-11T17:17:35;2.80;;;0.90;;
55641;SDS011;41509;53.108;6.100;2022-08-11T17:20:04;3.08;;;0.90;;
55641;SDS011;41509;53.108;6.100;2022-08-11T17:22:37;1.65;;;0.90;;
55641;SDS011;41509;53.108;6.100;2022-08-11T17:25:24;1.08;;;0.80;;
55641;SDS011;41509;53.108;6.100;2022-08-11T17:27:52;1.58;;;0.85;;
55641;SDS011;41509;53.108;6.100;2022-08-11T17:30:19;2.40;;;0.88;;
55641;SDS011;41509;53.108;6.100;2022-08-11T17:32:47;3.28;;;0.90;;
55641;SDS011;41509;53.108;6.100;2022-08-11T17:35:35;1.10;;;0.60;;
55641;SDS011;41509;53.108;6.100;2022-08-11T17:40:51;1.83;;;0.85;;
55641;SDS011;41509;53.108;6.100;2022-08-11T17:43:41;2.78;;;0.93;;
55641;SDS011;41509;53.108;6.100;2022-08-11T17:46:27;1.23;;;0.75;;
55641;SDS011;41509;53.108;6.100;2022-08-11T17:49:12;1.27;;;0.68;;
55641;SDS011;41509;53.108;6.100;2022-08-11T17:51:42;1.70;;;0.90;;
55641;SDS011;41509;53.108;6.100;2022-08-11T17:54:27;1.40;;;0.70;;
55641;SDS011;41509;53.108;6.100;2022-08-11T17:57:13;4.10;;;0.90;;
55641;SDS011;41509;53.108;6.100;2022-08-11T17:59:59;1.60;;;0.90;;
55641;SDS011;41509;53.108;6.100;2022-08-11T18:02:28;2.35;;;1.02;;
55641;SDS011;41509;53.108;6.100;2022-08-11T18:05:27;1.20;;;0.80;;
55641;SDS011;41509;53.108;6.100;2022-08-11T18:08:00;2.63;;;0.90;;
55641;SDS011;41509;53.108;6.100;2022-08-11T18:10:47;2.05;;;0.93;;
55641;SDS011;41509;53.108;6.100;2022-08-11T18:13:34;3.10;;;0.85;;
55641;SDS011;41509;53.108;6.100;2022-08-11T18:16:20;2.85;;;1.40;;
55641;SDS011;41509;53.108;6.100;2022-08-11T18:19:05;3.83;;;1.17;;
55641;SDS011;41509;53.108;6.100;2022-08-11T18:21:50;2.90;;;1.08;;
55641;SDS011;41509;53.108;6.100;2022-08-11T18:24:42;2.35;;;0.93;;
55641;SDS011;41509;53.108;6.100;2022-08-11T18:27:34;2.00;;;0.80;;
55641;SDS011;41509;53.108;6.100;2022-08-11T18:30:21;1.55;;;0.95;;
55641;SDS011;41509;53.108;6.100;2022-08-11T18:33:07;2.22;;;1.00;;
55641;SDS011;41509;53.108;6.100;2022-08-11T18:35:53;2.28;;;1.00;;
55641;SDS011;41509;53.108;6.100;2022-08-11T18:38:42;3.40;;;1.02;;
55641;SDS011;41509;53.108;6.100;2022-08-11T18:41:31;2.20;;;0.93;;
55641;SDS011;41509;53.108;6.100;2022-08-11T18:44:20;1.13;;;0.80;;
55641;SDS011;41509;53.108;6.100;2022-08-11T18:47:09;1.75;;;1.05;;
55641;SDS011;41509;53.108;6.100;2022-08-11T18:49:55;1.88;;;1.00;;
55641;SDS011;41509;53.108;6.100;2022-08-11T18:55:28;2.15;;;1.02;;
55641;SDS011;41509;53.108;6.100;2022-08-11T18:58:14;5.32;;;1.30;;
55641;SDS011;41509;53.108;6.100;2022-08-11T19:01:05;5.97;;;1.20;;
55641;SDS011;41509;53.108;6.100;2022-08-11T19:03:55;2.03;;;1.23;;
55641;SDS011;41509;53.108;6.100;2022-08-11T19:06:40;4.65;;;1.52;;
55641;SDS011;41509;53.108;6.100;2022-08-11T19:09:26;3.03;;;1.00;;
55641;SDS011;41509;53.108;6.100;2022-08-11T19:12:12;2.40;;;1.10;;
55641;SDS011;41509;53.108;6.100;2022-08-11T19:14:57;2.63;;;1.08;;
55641;SDS011;41509;53.108;6.100;2022-08-11T19:17:45;1.92;;;1.02;;
55641;SDS011;41509;53.108;6.100;2022-08-11T19:20:30;1.85;;;0.90;;